Time;durP1;ratioP1;P1;durP2;ratioP2;P2;SDS_P1;SDS_P2;PMS_P1;PMS_P2;Temp;Humidity;BMP_temperature;BMP_pressure;BME280_temperature;BME280_humidity;BME280_pressure;Samples;Min_cycle;Max_cycle;Signal;HPM_P1;HPM_P2
2023/10/10 00:02:24;;;;;;;99.30;74.20;;;;;;;3.73;77.18;100856.30;113504;1232;21925;-77
2023/10/10 00:05:36;;;;;;;120.90;70.20;;;;;;;3.65;77.08;100857.00;113527;1230;21955;-77
2023/10/10 00:09:30;;;;;;;;;;;;;;;;;;;;;
2023/10/10 00:12:58;;;;;;;;;;;;;;;;;;;;;
2023/10/10 00:16:33;;;;;;;107.60;73.60;;;;;;;3.59;77.60;100867.85;111670;1249;23643;-77
2023/10/10 00:20:29;;;;;;;92.10;64.10;;;;;;;3.62;77.77;100868.02;111716;1249;21963;-78
2023/10/10 00:24:11;;;;;;;;;;;;;;;;;;;;;
2023/10/10 00:27:39;;;;;;;;;;;;;;;;;;;;;
2023/10/10 00:31:15;;;;;;;83.80;60.70;;;;;;;3.71;77.86;100865.08;111270;1256;21991;-78
2023/10/10 00:34:39;;;;;;;;;;;;;;;;;;;;;
2023/10/10 00:37:59;;;;;;;103.40;49.00;;;;;;;3.69;77.73;100849.94;110628;1259;22834;-77
2023/10/10 00:41:42;;;;;;;85.20;52.60;;;;;;;3.58;77.57;100849.44;110774;1254;22126;-78
2023/10/10 00:45:09;;;;;;;80.90;55.70;;;;;;;3.43;77.43;100847.05;111302;1250;22564;-77
2023/10/10 00:49:13;;;;;;;76.40;56.60;;;;;;;3.37;77.63;100844.63;111147;1255;21981;-78
2023/10/10 00:52:32;;;;;;;76.80;56.40;;;;;;;3.41;77.89;100840.50;110760;1255;24164;-78
2023/10/10 00:56:27;;;;;;;;;;;;;;;;;;;;;
2023/10/10 01:04:10;;;;;;;99.40;55.30;;;;;;;3.53;77.97;100826.38;107664;1291;544262;-77
2023/10/10 01:07:25;;;;;;;97.00;52.20;;;;;;;3.39;77.68;100820.02;110396;1264;23698;-77
2023/10/10 01:10:56;;;;;;;83.30;55.70;;;;;;;3.26;77.57;100816.08;110318;1265;22335;-77
2023/10/10 01:14:46;;;;;;;86.90;51.50;;;;;;;3.19;77.74;100815.39;110273;1265;21979;-78
2023/10/10 01:17:48;;;;;;;61.70;51.10;;;;;;;3.17;77.99;100818.13;103217;1269;8345127;-77
2023/10/10 01:22:00;;;;;;;;;;;;;;;;;;;;;
2023/10/10 01:26:09;;;;;;;67.90;49.00;;;;;;;3.24;78.41;100828.80;109163;1276;23174;-79
2023/10/10 01:29:40;;;;;;;57.00;47.60;;;;;;;3.25;78.47;100832.42;108891;1281;23011;-78
2023/10/10 01:33:16;;;;;;;55.20;48.10;;;;;;;3.27;78.46;100836.88;108745;1281;22649;-78
2023/10/10 01:36:32;;;;;;;;;;;;;;;;;;;;;
2023/10/10 01:40:27;;;;;;;;;;;;;;;;;;;;;
2023/10/10 01:44:08;;;;;;;55.50;46.60;;;;;;;3.33;78.54;100842.39;108119;1289;22000;-78
2023/10/10 01:47:02;;;;;;;53.10;45.90;;;;;;;3.33;78.56;100833.97;108159;1289;23157;-78
2023/10/10 01:49:55;;;;;;;56.30;46.40;;;;;;;3.35;78.67;100833.96;107796;1291;22003;-78
2023/10/10 01:52:34;;;;;;;49.90;44.60;;;;;;;3.44;78.57;100837.06;107728;1291;22082;-78
2023/10/10 01:55:22;;;;;;;;;;;;;;;;;;;;;
2023/10/10 01:58:20;;;;;;;56.30;42.80;;;;;;;3.46;78.46;100838.27;109087;1270;23100;-78
2023/10/10 02:01:36;;;;;;;59.90;45.30;;;;;;;3.43;78.37;100835.86;109584;1263;22782;-78
2023/10/10 02:04:44;;;;;;;;;;;;;;;;;;;;;
2023/10/10 02:08:04;;;;;;;66.70;48.20;;;;;;;3.35;78.38;100834.31;108985;1276;23741;-77
2023/10/10 02:11:25;;;;;;;71.10;47.70;;;;;;;3.34;78.39;100825.54;108551;1282;23042;-78
2023/10/10 02:14:37;;;;;;;54.30;44.80;;;;;;;3.34;78.47;100818.83;108344;1284;21993;-78
2023/10/10 02:19:00;;;;;;;61.90;46.70;;;;;;;3.32;78.32;100820.55;108506;1284;21990;-77
2023/10/10 02:23:01;;;;;;;77.40;42.50;;;;;;;3.29;78.30;100819.52;108529;1282;22286;-78
2023/10/10 02:25:42;;;;;;;98.80;42.50;;;;;;;3.20;78.15;100820.89;108607;1278;21985;-77
2023/10/10 02:36:51;;;;;;;;;;;;;;;;;;;;;
2023/10/10 02:41:04;;;;;;;;;;;;;;;;;;;;;
2023/10/10 02:43:45;;;;;;;;;;;;;;;;;;;;;
2023/10/10 02:47:50;;;;;;;;;;;;;;;;;;;;;
2023/10/10 03:10:12;;;;;;;84.90;49.70;;;;;;;4.19;74.40;100840.14;105211;1274;5428263;-79
2023/10/10 03:14:07;;;;;;;;;;;;;;;;;;;;;
2023/10/10 03:18:15;;;;;;;82.80;45.10;;;;;;;3.53;76.45;100848.23;108964;1278;21989;-78
2023/10/10 03:25:38;;;;;;;64.50;43.40;;;;;;;3.20;77.41;100848.58;108722;1283;22000;-80
2023/10/10 03:32:59;;;;;;;63.00;44.50;;;;;;;3.22;78.26;100844.29;108228;1290;23631;-80
2023/10/10 03:39:41;;;;;;;;;;;;;;;;;;;;;
2023/10/10 05:24:08;;;;;;;85.90;72.70;;;;;;;3.24;80.72;100875.77;110135;1267;22069;-77
2023/10/10 05:28:30;;;;;;;;;;;;;;;;;;;;;
2023/10/10 05:32:01;;;;;;;87.70;72.40;;;;;;;3.35;80.82;100878.00;109782;1271;23118;-80
2023/10/10 05:37:00;;;;;;;;;;;;;;;;;;;;;
2023/10/10 05:41:01;;;;;;;87.00;68.90;;;;;;;3.43;80.86;100877.15;108430;1294;23699;-78
2023/10/10 05:44:16;;;;;;;74.60;66.60;;;;;;;3.48;80.97;100879.90;107374;1294;22608;-78
2023/10/10 05:46:48;;;;;;;70.10;62.60;;;;;;;3.60;80.98;100887.46;107587;1294;22008;-78
2023/10/10 06:00:59;;;;;;;63.80;57.40;;;;;;;5.16;76.81;100888.70;110386;1263;548199;-78
2023/10/10 06:08:31;;;;;;;60.60;53.80;;;;;;;5.02;76.43;100891.63;111433;1253;21995;-77
2023/10/10 06:12:27;;;;;;;;;;;;;;;;;;;;;
2023/10/10 06:16:03;;;;;;;;;;;;;;;;;;;;;
2023/10/10 06:19:34;;;;;;;64.70;58.20;;;;;;;4.82;78.16;100899.69;111752;1246;21991;-76
2023/10/10 06:23:20;;;;;;;64.60;56.70;;;;;;;4.85;78.68;100900.70;111220;1253;23597;-78
2023/10/10 06:26:36;;;;;;;63.10;56.20;;;;;;;4.90;78.75;100901.02;111179;1253;21992;-76
2023/10/10 06:30:23;;;;;;;65.50;57.80;;;;;;;4.94;78.71;100901.36;111537;1248;23034;-77
2023/10/10 06:34:19;;;;;;;60.60;54.20;;;;;;;4.96;78.89;100906.85;111441;1244;22031;-76
2023/10/10 06:38:13;;;;;;;61.50;54.80;;;;;;;5.01;78.95;100917.16;111163;1250;22035;-76
2023/10/10 06:41:43;;;;;;;59.00;52.70;;;;;;;5.14;79.14;100918.48;111399;1251;23022;-78
2023/10/10 06:46:13;;;;;;;65.80;58.70;;;;;;;5.28;79.10;100920.63;110795;1258;21998;-76
2023/10/10 06:50:00;;;;;;;51.80;46.40;;;;;;;5.40;79.36;100923.13;110324;1262;22290;-77
2023/10/10 06:53:47;;;;;;;48.40;43.40;;;;;;;5.54;79.54;100925.96;110808;1257;23790;-78
2023/10/10 07:01:35;;;;;;;;;;;;;;;;;;;;;
2023/10/10 07:05:39;;;;;;;;;;;;;;;;;;;;;
2023/10/10 07:13:03;;;;;;;42.60;34.60;;;;;;;6.34;79.39;100914.33;110699;1260;23836;-78
2023/10/10 07:16:58;;;;;;;;;;;;;;;;;;;;;
2023/10/10 07:27:58;;;;;;;;;;;;;;;;;;;;;
2023/10/10 07:31:27;;;;;;;;;;;;;;;;;;;;;
2023/10/10 07:34:47;;;;;;;;;;;;;;;;;;;;;
2023/10/10 07:37:38;;;;;;;35.90;32.20;;;;;;;7.50;78.01;100899.77;108882;1278;21993;-76
2023/10/10 07:40:52;;;;;;;39.60;34.90;;;;;;;7.74;77.65;100900.23;109590;1265;22023;-75
2023/10/10 07:44:08;;;;;;;43.60;35.30;;;;;;;8.03;77.78;100904.05;110021;1265;24323;-76
2023/10/10 07:52:01;;;;;;;;;;;;;;;;;;;;;
2023/10/10 07:55:30;;;;;;;;;;;;;;;;;;;;;
2023/10/10 07:59:12;;;;;;;;;;;;;;;;;;;;;
2023/10/10 08:03:31;;;;;;;;;;;;;;;;;;;;;
2023/10/10 08:07:18;;;;;;;28.80;25.80;;;;;;;9.32;70.74;100888.86;109936;1268;24169;-78
2023/10/10 08:14:48;;;;;;;25.90;23.50;;;;;;;10.16;71.87;100877.33;109868;1264;23064;-77
2023/10/10 08:25:41;;;;;;;;;;;;;;;;;;;;;
2023/10/10 08:29:26;;;;;;;;;;;;;;;;;;;;;
2023/10/10 08:32:51;;;;;;;;;;;;;;;;;;;;;
2023/10/10 08:35:59;;;;;;;;;;;;;;;;;;;;;
2023/10/10 08:39:35;;;;;;;;;;;;;;;;;;;;;
2023/10/10 08:47:49;;;;;;;26.30;22.90;;;;;;;12.65;61.06;100881.61;109356;1271;22002;-78
2023/10/10 08:51:13;;;;;;;;;;;;;;;;;;;;;
2023/10/10 08:54:37;;;;;;;24.60;22.30;;;;;;;12.58;61.32;100879.45;109754;1268;22204;-81
2023/10/10 08:58:11;;;;;;;29.00;25.90;;;;;;;12.57;61.22;100881.23;110036;1264;22113;-79
2023/10/10 09:01:24;;;;;;;;;;;;;;;;;;;;;
2023/10/10 09:05:12;;;;;;;;;;;;;;;;;;;;;
2023/10/10 09:09:32;;;;;;;21.40;19.10;;;;;;;12.75;60.13;100892.41;111102;1254;22412;-81
2023/10/10 09:13:36;;;;;;;;;;;;;;;;;;;;;
2023/10/10 09:17:34;;;;;;;26.60;23.70;;;;;;;12.98;60.18;100892.04;111108;1258;21970;-82
2023/10/10 09:22:25;;;;;;;23.50;20.50;;;;;;;13.21;60.45;100890.29;110396;1263;22271;-82
2023/10/10 09:26:19;;;;;;;24.30;21.80;;;;;;;13.63;59.31;100890.02;110325;1268;23020;-81
2023/10/10 09:29:43;;;;;;;28.50;25.50;;;;;;;13.83;58.77;100882.66;109498;1274;22815;-83
2023/10/10 09:32:57;;;;;;;27.30;24.60;;;;;;;13.95;58.20;100876.73;109624;1274;22001;-83
2023/10/10 09:36:19;;;;;;;;;;;;;;;;;;;;;
2023/10/10 09:39:11;;;;;;;30.10;25.10;;;;;;;14.09;57.22;100880.87;109476;1274;22264;-81
2023/10/10 09:42:44;;;;;;;27.50;24.70;;;;;;;14.16;57.26;100881.25;109358;1274;22004;-82
2023/10/10 09:45:52;;;;;;;29.10;26.00;;;;;;;14.22;57.26;100879.21;109884;1270;22129;-84
2023/10/10 09:52:47;;;;;;;24.70;22.20;;;;;;;14.35;56.60;100878.49;110017;1270;22036;-83
2023/10/10 09:54:37;;;;;;;26.00;23.30;;;;;;;14.47;56.67;100876.22;110191;1265;21982;-81
2023/10/10 09:58:17;;;;;;;25.60;23.10;;;;;;;14.73;56.51;100879.02;111522;1253;21993;-84
2023/10/10 10:10:34;;;;;;;26.80;24.20;;;;;;;14.92;54.60;100868.50;112956;1242;21974;-85
2023/10/10 10:14:37;;;;;;;25.60;23.30;;;;;;;14.91;54.62;100860.32;112891;1242;21952;-83
2023/10/10 10:18:36;;;;;;;;;;;;;;;;;;;;;
2023/10/10 10:22:48;;;;;;;;;;;;;;;;;;;;;
2023/10/10 10:34:48;;;;;;;;;;;;;;;;;;;;;
2023/10/10 10:39:29;;;;;;;25.20;22.80;;;;;;;14.63;55.62;100857.92;108489;1286;548826;-83
2023/10/10 10:43:56;;;;;;;26.90;24.20;;;;;;;14.63;54.87;100861.31;110390;1267;22435;-82
2023/10/10 10:47:21;;;;;;;28.90;26.00;;;;;;;14.71;55.16;100861.30;110227;1268;22072;-83
2023/10/10 10:50:46;;;;;;;29.10;26.20;;;;;;;14.80;55.21;100858.90;109899;1272;22003;-82
2023/10/10 10:55:18;;;;;;;28.50;25.60;;;;;;;14.88;55.18;100863.98;105755;1272;22478;-82
2023/10/10 10:58:52;;;;;;;26.30;23.80;;;;;;;14.83;54.64;100860.54;109250;1278;23056;-83
2023/10/10 11:06:06;;;;;;;;;;;;;;;;;;;;;
2023/10/10 11:10:35;;;;;;;;;;;;;;;;;;;;;
2023/10/10 11:14:24;;;;;;;25.60;22.60;;;;;;;14.84;55.37;100839.64;108551;1284;24927;-82
2023/10/10 11:18:07;;;;;;;23.70;21.40;;;;;;;14.97;55.44;100832.15;108651;1284;24411;-83
2023/10/10 11:22:05;;;;;;;;;;;;;;;;;;;;;
2023/10/10 11:26:21;;;;;;;21.60;19.60;;;;;;;15.07;55.34;100832.39;108688;1285;23262;-81
2023/10/10 11:33:30;;;;;;;26.20;23.50;;;;;;;15.09;55.33;100819.88;109576;1270;21942;-84
2023/10/10 11:37:18;;;;;;;;;;;;;;;;;;;;;
2023/10/10 11:41:31;;;;;;;27.30;24.30;;;;;;;14.99;55.65;100823.48;109384;1277;22075;-83
2023/10/10 11:44:33;;;;;;;22.10;19.70;;;;;;;14.90;55.50;100817.77;109303;1277;22066;-84
2023/10/10 11:47:29;;;;;;;22.80;20.70;;;;;;;14.83;55.49;100815.99;108880;1281;22102;-84
2023/10/10 11:50:59;;;;;;;23.50;21.30;;;;;;;14.75;55.94;100816.73;109161;1273;21985;-84
2023/10/10 11:53:42;;;;;;;24.30;22.10;;;;;;;14.71;56.17;100818.54;109612;1270;21973;-85
2023/10/10 11:56:24;;;;;;;25.10;22.60;;;;;;;14.64;56.07;100824.11;109638;1270;23595;-81
2023/10/10 11:59:50;;;;;;;24.50;21.50;;;;;;;14.60;56.66;100826.91;110932;1265;21979;-80
2023/10/10 12:04:04;;;;;;;;;;;;;;;;;;;;;
2023/10/10 12:08:02;;;;;;;25.20;22.60;;;;;;;14.60;57.28;100811.52;111662;1258;21968;-82
2023/10/10 12:11:32;;;;;;;24.30;21.90;;;;;;;14.69;57.32;100816.53;112661;1242;21957;-82
2023/10/10 12:15:20;;;;;;;;;;;;;;;;;;;;;
2023/10/10 12:19:05;;;;;;;28.30;25.70;;;;;;;14.87;57.27;100815.14;111483;1256;23853;-85
2023/10/10 12:23:30;;;;;;;;;;;;;;;;;;;;;
2023/10/10 12:27:49;;;;;;;28.70;26.10;;;;;;;15.05;57.40;100811.79;110234;1264;22159;-79
2023/10/10 12:31:33;;;;;;;27.60;25.00;;;;;;;15.07;57.06;100807.50;109992;1265;22714;-81
2023/10/10 12:34:45;;;;;;;29.80;27.20;;;;;;;15.07;57.00;100811.18;109879;1270;21983;-83
2023/10/10 12:38:21;;;;;;;29.60;26.90;;;;;;;15.04;56.93;100816.91;110064;1268;22047;-82
2023/10/10 12:46:21;;;;;;;31.70;28.70;;;;;;;14.81;57.47;100819.10;109177;1280;23813;-81
2023/10/10 12:50:24;;;;;;;;;;;;;;;;;;;;;
2023/10/10 12:53:59;;;;;;;32.70;29.10;;;;;;;14.88;58.17;100812.30;108444;1291;23746;-89
2023/10/10 12:58:04;;;;;;;;;;;;;;;;;;;;;
2023/10/10 13:01:00;;;;;;;28.90;25.90;;;;;;;14.82;58.23;100806.44;108037;1293;22036;-82
2023/10/10 13:04:54;;;;;;;29.20;26.50;;;;;;;14.75;57.96;100807.11;107936;1296;22030;-84
2023/10/10 13:07:39;;;;;;;31.80;27.80;;;;;;;14.68;58.32;100807.10;107565;1297;23883;-83
2023/10/10 13:10:54;;;;;;;;;;;;;;;;;;;;;
2023/10/10 13:15:17;;;;;;;;;;;;;;;14.50;58.56;100811.09;107961;1295;22958;-84
2023/10/10 13:23:41;;;;;;;30.40;27.30;;;;;;;14.11;59.23;100806.91;108583;1291;22020;-84
2023/10/10 13:26:33;;;;;;;;;;;;;;;;;;;;;
2023/10/10 13:35:09;;;;;;;30.60;27.20;;;;;;;13.87;60.36;100800.09;108254;1298;21752;-85
2023/10/10 13:43:44;;;;;;;34.80;31.30;;;;;;;13.67;61.19;100798.03;109607;1277;22975;-88
2023/10/10 13:48:13;;;;;;;35.30;32.00;;;;;;;13.53;61.53;100799.30;109596;1278;23047;-87
2023/10/10 13:52:39;;;;;;;38.50;34.70;;;;;;;13.37;62.11;100804.72;109090;1282;22281;-85
2023/10/10 14:00:45;;;;;;;39.30;35.30;;;;;;;13.23;62.78;100810.67;107677;1297;22510;-84
2023/10/10 14:04:00;;;;;;;48.20;43.40;;;;;;;13.19;63.18;100813.13;107452;1301;22332;-83
2023/10/10 14:11:04;;;;;;;;;;;;;;;;;;;;;
2023/10/10 14:14:42;;;;;;;;;;;;;;;13.15;63.54;100804.02;106229;1314;23094;-88
2023/10/10 14:18:06;;;;;;;;;;;;;;;;;;;;;
2023/10/10 14:41:58;;;;;;;;;;;;;;;;;;;;;
2023/10/10 14:48:59;;;;;;;;;;;;;;;;;;;;;
2023/10/10 14:52:46;;;;;;;;;;;;;;;;;;;;;
2023/10/10 14:56:19;;;;;;;;;;;;;;;;;;;;;
2023/10/10 14:59:25;;;;;;;42.40;38.10;;;;;;;13.28;64.66;100799.99;111278;1257;21966;-82
2023/10/10 15:03:22;;;;;;;;;;;;;;;;;;;;;
2023/10/10 15:07:39;;;;;;;;;;;;;;;;;;;;;
2023/10/10 15:11:42;;;;;;;42.10;37.60;;;;;;;12.98;65.56;100809.08;110910;1264;21976;-84
2023/10/10 15:15:15;;;;;;;42.80;38.10;;;;;;;12.83;65.94;100793.26;110653;1265;21985;-83
2023/10/10 15:18:54;;;;;;;;;;;;;;;;;;;;;
2023/10/10 15:22:53;;;;;;;;;;;;;;;;;;;;;
2023/10/10 15:27:06;;;;;;;;;;;;;;;;;;;;;
2023/10/10 15:30:51;;;;;;;;;;;;;;;;;;;;;
2023/10/10 15:34:06;;;;;;;48.50;42.50;;;;;;;12.73;67.26;100792.10;110135;1269;21992;-82
2023/10/10 15:37:52;;;;;;;45.40;40.40;;;;;;;12.67;67.57;100793.88;109881;1268;23082;-80
2023/10/10 15:41:19;;;;;;;50.30;43.30;;;;;;;12.62;67.88;100793.22;110320;1268;22432;-81
2023/10/10 15:44:04;;;;;;;50.40;43.80;;;;;;;12.62;68.06;100793.59;110361;1267;22000;-83
2023/10/10 15:46:58;;;;;;;54.20;48.00;;;;;;;12.62;68.17;100800.38;110076;1264;22940;-81
2023/10/10 15:49:43;;;;;;;48.40;43.20;;;;;;;12.60;68.52;100807.80;110427;1265;22423;-83
2023/10/10 15:52:58;;;;;;;54.00;45.90;;;;;;;12.60;68.79;100804.27;110186;1265;21974;-81
2023/10/10 15:56:21;;;;;;;54.40;47.50;;;;;;;12.55;69.08;100800.46;109694;1272;22008;-82
2023/10/10 15:59:08;;;;;;;51.40;45.30;;;;;;;12.56;69.40;100812.13;109517;1272;22454;-80
2023/10/10 16:02:28;;;;;;;49.90;44.10;;;;;;;12.56;69.86;100823.48;109383;1275;22801;-80
2023/10/10 16:05:28;;;;;;;51.70;45.80;;;;;;;12.59;69.72;100820.24;109438;1275;22079;-80
2023/10/10 16:08:42;;;;;;;50.10;40.90;;;;;;;12.50;69.88;100819.16;109307;1275;21985;-80
2023/10/10 16:11:35;;;;;;;53.70;44.30;;;;;;;12.40;70.11;100820.24;109356;1274;22003;-81
2023/10/10 16:14:36;;;;;;;56.10;47.20;;;;;;;12.34;70.45;100819.58;109751;1270;21968;-80
2023/10/10 16:17:35;;;;;;;54.40;46.90;;;;;;;12.32;70.67;100818.13;109861;1270;22064;-80
2023/10/10 16:20:37;;;;;;;54.60;47.50;;;;;;;12.31;71.02;100809.08;110118;1251;23035;-81
2023/10/10 16:23:23;;;;;;;57.30;47.90;;;;;;;12.34;71.07;100811.05;110544;1260;22009;-82
2023/10/10 16:26:13;;;;;;;56.60;47.90;;;;;;;12.33;71.17;100807.92;110575;1251;23890;-81
2023/10/10 16:29:46;;;;;;;55.40;49.10;;;;;;;12.30;71.29;100799.67;109930;1269;21990;-84
2023/10/10 16:32:45;;;;;;;;;;;;;;;;;;;;;
2023/10/10 16:35:56;;;;;;;65.50;55.30;;;;;;;12.17;71.78;100806.81;109399;1270;23842;-80
2023/10/10 16:39:44;;;;;;;57.80;48.70;;;;;;;12.15;72.15;100799.03;109622;1273;24324;-81
2023/10/10 16:42:55;;;;;;;59.50;49.40;;;;;;;12.15;72.27;100800.24;109356;1273;22055;-81
2023/10/10 16:45:49;;;;;;;65.20;53.30;;;;;;;12.16;72.45;100799.52;109523;1273;21999;-80
2023/10/10 16:48:44;;;;;;;66.10;54.20;;;;;;;12.17;72.54;100799.98;109126;1278;21968;-81
2023/10/10 16:51:58;;;;;;;63.80;52.80;;;;;;;12.20;72.50;100806.67;108973;1278;23730;-84
2023/10/10 16:55:01;;;;;;;65.60;54.10;;;;;;;12.13;72.71;100791.25;109721;1270;22016;-80
2023/10/10 16:58:38;;;;;;;;;;;;;;;;;;;;;
2023/10/10 17:01:43;;;;;;;68.90;55.10;;;;;;;12.23;72.92;100803.98;109355;1275;23054;-82
2023/10/10 17:04:43;;;;;;;63.60;53.90;;;;;;;12.21;73.00;100791.11;109780;1274;23771;-81
2023/10/10 17:08:09;;;;;;;64.40;54.70;;;;;;;12.26;72.94;100799.14;110277;1266;22737;-81
2023/10/10 17:12:12;;;;;;;;;;;;;;;;;;;;;
2023/10/10 17:15:49;;;;;;;;;;;;;;;;;;;;;
2023/10/10 17:19:10;;;;;;;66.90;54.10;;;;;;;12.21;73.34;100789.20;110275;1268;22044;-83
2023/10/10 17:22:16;;;;;;;;;;;;;;;;;;;;;
2023/10/10 17:25:33;;;;;;;82.50;62.40;;;;;;;12.16;73.41;100793.23;111806;1248;21970;-83
2023/10/10 17:28:24;;;;;;;74.30;57.70;;;;;;;12.13;73.42;100792.14;112174;1248;21955;-82
2023/10/10 17:31:10;;;;;;;65.20;54.90;;;;;;;12.10;73.65;100791.52;111158;1255;21958;-84
2023/10/10 17:34:07;;;;;;;65.60;54.20;;;;;;;12.05;73.83;100791.00;111457;1255;22095;-84
2023/10/10 17:42:02;;;;;;;66.30;55.70;;;;;;;11.93;74.40;100789.70;111225;1268;21992;-84
2023/10/10 17:56:53;;;;;;;69.80;59.30;;;;;;;11.98;74.79;100793.03;110224;1272;21984;-85
2023/10/10 18:00:31;;;;;;;73.40;58.90;;;;;;;12.00;74.99;100799.05;109581;1276;22010;-82
2023/10/10 18:04:33;;;;;;;81.30;69.90;;;;;;;12.03;75.10;100792.31;109398;1285;22006;-85
2023/10/10 18:14:02;;;;;;;99.10;80.50;;;;;;;11.97;75.33;100780.33;108949;1283;22810;-81
2023/10/10 18:17:09;;;;;;;81.00;66.40;;;;;;;11.96;75.47;100777.58;109358;1281;22022;-80
2023/10/10 18:20:14;;;;;;;80.40;67.10;;;;;;;11.97;75.54;100776.81;109243;1280;22022;-80
2023/10/10 18:23:12;;;;;;;80.60;65.30;;;;;;;12.01;75.53;100778.26;109066;1280;21994;-79
2023/10/10 18:26:25;;;;;;;;;;;;;;;;;;;;;
2023/10/10 18:29:29;;;;;;;80.50;65.20;;;;;;;12.02;75.50;100777.20;109096;1274;22024;-80
2023/10/10 18:32:27;;;;;;;80.10;67.30;;;;;;;12.01;75.86;100775.80;109134;1280;21856;-82
2023/10/10 18:35:31;;;;;;;80.60;67.10;;;;;;;12.03;75.93;100774.35;108748;1285;23059;-82
2023/10/10 18:39:15;;;;;;;82.40;67.20;;;;;;;12.05;76.02;100773.39;108640;1285;23688;-81
2023/10/10 18:42:02;;;;;;;87.30;66.70;;;;;;;12.07;76.06;100774.04;108498;1287;22212;-81
2023/10/10 18:45:06;;;;;;;80.20;69.60;;;;;;;12.09;76.02;100772.56;108651;1287;23055;-81
2023/10/10 18:48:03;;;;;;;84.60;71.40;;;;;;;12.11;76.05;100773.35;108642;1283;23100;-81
2023/10/10 18:51:25;;;;;;;107.90;92.40;;;;;;;12.08;76.01;100771.34;108794;1283;22004;-80
2023/10/10 18:54:30;;;;;;;92.50;74.70;;;;;;;12.06;76.07;100769.01;108956;1279;23051;-82
2023/10/10 18:57:09;;;;;;;83.40;74.10;;;;;;;12.08;75.97;100765.96;108876;1279;22009;-81
2023/10/10 18:59:49;;;;;;;89.10;75.50;;;;;;;12.08;76.14;100764.54;109085;1275;24375;-81
2023/10/10 19:02:32;;;;;;;83.10;73.70;;;;;;;12.07;76.25;100765.81;109274;1275;22008;-81
2023/10/10 19:05:19;;;;;;;85.90;73.90;;;;;;;12.06;76.41;100764.63;109318;1275;22127;-81
2023/10/10 19:08:22;;;;;;;82.40;70.50;;;;;;;12.06;76.49;100762.89;109806;1275;22090;-82
2023/10/10 19:11:29;;;;;;;86.30;70.80;;;;;;;12.05;76.65;100767.62;109291;1275;22748;-81
2023/10/10 19:14:13;;;;;;;83.30;72.10;;;;;;;12.05;76.55;100766.75;109365;1275;22035;-80
2023/10/10 19:16:53;;;;;;;87.10;70.10;;;;;;;12.08;76.73;100769.79;109322;1275;23808;-81
2023/10/10 19:19:26;;;;;;;85.50;71.90;;;;;;;12.12;76.84;100767.56;109562;1269;21982;-81
2023/10/10 19:22:10;;;;;;;83.50;71.70;;;;;;;12.15;76.85;100766.05;110068;1269;21975;-81
2023/10/10 19:24:53;;;;;;;85.60;68.20;;;;;;;12.16;76.81;100761.66;109452;1273;23033;-80
2023/10/10 19:37:09;;;;;;;89.00;69.20;;;;;;;12.05;77.25;100755.41;109348;1288;22132;-80
2023/10/10 19:39:51;;;;;;;;;;;;;;;12.08;77.21;100745.02;108175;1293;23023;-83
2023/10/10 19:42:29;;;;;;;84.60;67.10;;;;;;;12.11;77.14;100745.27;108084;1292;22012;-81
2023/10/10 19:45:16;;;;;;;84.70;69.90;;;;;;;12.10;77.12;100744.94;108283;1293;22094;-81
2023/10/10 19:48:10;;;;;;;89.10;70.30;;;;;;;12.05;77.14;100741.10;108158;1294;22031;-80
2023/10/10 19:50:52;;;;;;;82.30;66.20;;;;;;;12.04;77.15;100740.64;107478;1299;22014;-80
2023/10/10 19:53:38;;;;;;;88.00;73.70;;;;;;;12.04;77.27;100739.41;107537;1305;22067;-82
2023/10/10 19:56:23;;;;;;;63.70;51.30;;;;;;;12.05;77.51;100732.42;107470;1310;21939;-83
2023/10/10 19:59:04;;;;;;;88.30;72.60;;;;;;;12.03;77.55;100728.81;106451;1307;22050;-82
2023/10/10 20:01:48;;;;;;;86.40;75.10;;;;;;;12.04;77.56;100730.52;106661;1300;22219;-84
2023/10/10 20:04:45;;;;;;;97.30;78.30;;;;;;;12.03;77.70;100729.36;106646;1307;22712;-82
2023/10/10 20:08:17;;;;;;;77.40;62.90;;;;;;;12.00;77.89;100730.33;106990;1302;21826;-88
2023/10/10 20:10:50;;;;;;;90.60;78.40;;;;;;;12.02;77.93;100732.02;107532;1302;22040;-85
2023/10/10 20:13:29;;;;;;;82.60;73.10;;;;;;;12.03;78.07;100730.73;107382;1295;22049;-86
2023/10/10 20:16:26;;;;;;;112.10;100.20;;;;;;;12.04;78.05;100728.77;108699;1289;22021;-85
2023/10/10 20:19:10;;;;;;;100.00;82.30;;;;;;;12.06;78.00;100728.35;108704;1285;23631;-85
2023/10/10 20:21:52;;;;;;;90.50;79.70;;;;;;;12.08;78.10;100728.80;108765;1284;23731;-84
2023/10/10 20:24:34;;;;;;;93.60;80.30;;;;;;;12.09;78.13;100725.96;108730;1285;22031;-82
2023/10/10 20:27:21;;;;;;;92.50;82.40;;;;;;;12.10;78.25;100725.06;108617;1285;21998;-83
2023/10/10 20:30:03;;;;;;;88.60;76.60;;;;;;;12.10;78.46;100722.45;108665;1285;22024;-82
2023/10/10 20:32:41;;;;;;;96.50;85.00;;;;;;;12.11;78.37;100719.80;108627;1285;22004;-81
2023/10/10 20:35:34;;;;;;;87.80;75.60;;;;;;;12.12;78.28;100715.58;108768;1285;22040;-84
2023/10/10 20:38:23;;;;;;;98.30;87.70;;;;;;;12.11;78.45;100715.27;108402;1292;22021;-82
2023/10/10 20:41:12;;;;;;;94.80;84.40;;;;;;;12.13;78.63;100714.14;108344;1292;21965;-83
2023/10/10 20:43:43;;;;;;;95.90;84.50;;;;;;;12.14;78.52;100703.09;107775;1297;22039;-83
2023/10/10 20:46:28;;;;;;;96.60;86.00;;;;;;;12.13;78.34;100702.09;107899;1297;22791;-84
2023/10/10 20:49:37;;;;;;;;;;;;;;;;;;;;;
2023/10/10 20:53:01;;;;;;;76.40;67.50;;;;;;;12.04;78.48;100695.46;107960;1302;23135;-84
2023/10/10 20:55:49;;;;;;;83.00;72.70;;;;;;;12.03;78.68;100693.23;107163;1302;22381;-83
2023/10/10 20:58:36;;;;;;;;;;;;;;;12.03;78.71;100690.77;107176;1302;23045;-84
2023/10/10 21:01:33;;;;;;;82.70;73.60;;;;;;;12.02;78.56;100691.34;107522;1298;22009;-83
2023/10/10 21:04:24;;;;;;;;;;;;;;;12.00;78.59;100687.23;107018;1304;22022;-85
2023/10/10 21:07:06;;;;;;;82.60;71.10;;;;;;;11.98;78.84;100692.39;107425;1301;22009;-84
2023/10/10 21:09:40;;;;;;;82.40;69.70;;;;;;;11.98;78.97;100700.59;107883;1295;21854;-84
2023/10/10 21:12:12;;;;;;;82.40;70.90;;;;;;;11.98;78.81;100701.61;108145;1291;22048;-83
2023/10/10 21:15:17;;;;;;;83.10;67.40;;;;;;;11.97;78.98;100705.83;108204;1293;23080;-82
2023/10/10 21:17:58;;;;;;;81.60;72.80;;;;;;;12.00;79.26;100710.25;107951;1295;22020;-82
2023/10/10 21:20:33;;;;;;;79.30;70.60;;;;;;;12.05;79.13;100708.34;107788;1295;22051;-84
2023/10/10 21:23:28;;;;;;;85.50;76.40;;;;;;;12.07;79.19;100702.13;108032;1294;22058;-84
2023/10/10 21:26:14;;;;;;;83.10;73.40;;;;;;;12.10;79.38;100695.92;107540;1290;23136;-83
2023/10/10 21:29:09;;;;;;;76.00;67.80;;;;;;;12.08;79.31;100690.07;107186;1303;22193;-84
2023/10/10 21:31:48;;;;;;;71.30;63.80;;;;;;;12.08;79.39;100691.84;107416;1300;23079;-83
2023/10/10 21:34:25;;;;;;;79.30;70.70;;;;;;;12.09;79.38;100692.50;107316;1299;23086;-83
2023/10/10 21:37:06;;;;;;;79.00;70.30;;;;;;;12.10;79.51;100695.59;107413;1299;22032;-83
2023/10/10 21:39:47;;;;;;;74.10;65.80;;;;;;;12.11;79.44;100695.02;107422;1299;23772;-85
2023/10/10 21:42:22;;;;;;;74.10;66.00;;;;;;;12.14;79.40;100692.30;107308;1299;22951;-85
2023/10/10 21:44:59;;;;;;;72.30;64.80;;;;;;;12.16;79.51;100689.26;107372;1297;23135;-84
2023/10/10 21:47:40;;;;;;;70.60;63.20;;;;;;;12.16;79.29;100690.28;107636;1289;22954;-84
2023/10/10 21:50:12;;;;;;;69.60;62.20;;;;;;;12.16;79.45;100691.52;108244;1289;22120;-83
2023/10/10 21:52:53;;;;;;;72.50;64.90;;;;;;;12.16;79.42;100692.41;108442;1289;22022;-84
2023/10/10 21:55:29;;;;;;;66.10;58.80;;;;;;;12.16;79.40;100690.31;108297;1289;22028;-84
2023/10/10 21:58:06;;;;;;;66.30;59.50;;;;;;;12.15;79.41;100687.20;108430;1289;22496;-84
2023/10/10 22:03:23;;;;;;;68.70;61.50;;;;;;;12.14;79.44;100676.42;108080;1290;23815;-85
2023/10/10 22:06:09;;;;;;;;;;;;;;;12.13;79.63;100677.33;108273;1290;23667;-83
2023/10/10 22:08:43;;;;;;;63.00;56.30;;;;;;;12.05;79.70;100678.83;108196;1290;22017;-83
2023/10/10 22:11:18;;;;;;;73.20;65.10;;;;;;;12.08;79.86;100678.03;107973;1290;22010;-83
2023/10/10 22:13:53;;;;;;;;;;;;;;;12.11;79.72;100674.94;107873;1295;23752;-82
2023/10/10 22:16:33;;;;;;;70.70;63.50;;;;;;;12.13;79.66;100670.86;107703;1295;22114;-82
2023/10/10 22:19:19;;;;;;;75.70;68.10;;;;;;;12.14;79.73;100672.92;107973;1290;22107;-82
2023/10/10 22:21:51;;;;;;;75.30;65.70;;;;;;;12.16;79.91;100670.91;108087;1291;22008;-81
2023/10/10 22:24:22;;;;;;;76.50;68.80;;;;;;;12.18;79.64;100668.59;108108;1290;22287;-82